Time;durP1;ratioP1;P1;durP2;ratioP2;P2;SDS_P1;SDS_P2;PMS_P1;PMS_P2;Temp;Humidity;BMP_temperature;BMP_pressure;BME280_temperature;BME280_humidity;BME280_pressure;Samples;Min_cycle;Max_cycle;Signal;HPM_P1;HPM_P2
2024/01/16 00:02:11;;;;;;;1.67;1.10;;;;;;;-143.84;76.62;45136.66;5091354;28;20447;-56
2024/01/16 00:04:39;;;;;;;1.07;0.93;;;;;;;-143.84;77.46;45148.09;5091241;28;20998;-57
2024/01/16 00:07:08;;;;;;;1.17;1.07;;;;;;;-143.84;77.43;45155.69;5091306;28;20436;-56
2024/01/16 00:09:35;;;;;;;1.03;0.93;;;;;;;-143.84;77.17;45165.22;5091124;28;20471;-57
2024/01/16 00:12:03;;;;;;;2.77;2.40;;;;;;;-143.84;77.87;45159.50;5091015;28;20448;-57
2024/01/16 00:14:30;;;;;;;1.20;0.70;;;;;;;-143.84;78.04;45189.97;5091448;28;20443;-57
2024/01/16 00:16:57;;;;;;;0.90;0.70;;;;;;;-143.84;78.24;45148.09;5091203;28;21372;-57
2024/01/16 00:19:25;;;;;;;1.00;0.90;;;;;;;-143.84;78.42;45155.69;5090234;28;20524;-57
2024/01/16 00:21:52;;;;;;;1.00;0.80;;;;;;;-143.84;78.72;45186.16;5090970;28;21369;-57
2024/01/16 00:24:20;;;;;;;3.53;0.90;;;;;;;-143.84;79.61;45130.94;5090873;28;20451;-57
2024/01/16 00:26:49;;;;;;;0.80;0.57;;;;;;;-143.84;80.03;45167.13;5090857;28;20452;-56
2024/01/16 00:29:16;;;;;;;0.80;0.40;;;;;;;-143.84;80.91;45163.31;5090664;28;21104;-57
2024/01/16 00:31:44;;;;;;;1.73;1.20;;;;;;;-143.84;81.22;45151.91;5090697;28;20450;-56
2024/01/16 00:34:11;;;;;;;1.33;1.23;;;;;;;-143.84;80.83;45150.00;5090705;28;21167;-57
2024/01/16 00:36:38;;;;;;;0.80;0.53;;;;;;;-143.84;81.30;45155.69;5090577;28;20451;-56
2024/01/16 00:39:05;;;;;;;1.40;0.93;;;;;;;-143.84;81.44;45165.22;5090626;28;20439;-57
2024/01/16 00:41:33;;;;;;;1.33;0.70;;;;;;;-143.84;80.91;45121.44;5090321;28;20503;-57
2024/01/16 00:44:01;;;;;;;1.77;0.83;;;;;;;-143.84;80.76;45165.22;5090582;28;20436;-57
2024/01/16 00:46:28;;;;;;;0.90;0.70;;;;;;;-143.84;81.43;45153.81;5090690;28;20448;-57
2024/01/16 00:48:55;;;;;;;0.80;0.50;;;;;;;-143.84;82.21;45144.28;5090506;28;20447;-57
2024/01/16 00:51:22;;;;;;;2.40;1.63;;;;;;;-143.84;82.56;45150.00;5090640;28;20472;-57
2024/01/16 00:53:49;;;;;;;0.90;0.60;;;;;;;-143.84;83.12;45150.00;5090432;28;20443;-56
2024/01/16 00:56:16;;;;;;;1.30;0.87;;;;;;;-143.84;83.37;45170.94;5090498;28;20501;-57
2024/01/16 00:58:45;;;;;;;1.00;0.83;;;;;;;-143.84;83.41;45151.91;5090048;28;20456;-56
2024/01/16 01:01:12;;;;;;;3.23;2.40;;;;;;;-143.84;82.52;45176.66;5089268;28;20509;-57
2024/01/16 01:03:39;;;;;;;0.80;0.50;;;;;;;-143.84;82.39;45157.59;5090313;28;20448;-57
2024/01/16 01:06:07;;;;;;;1.33;1.00;;;;;;;-143.84;83.45;45243.31;5089959;28;20436;-57
2024/01/16 01:08:34;;;;;;;0.90;0.70;;;;;;;-143.84;83.31;45169.03;5089010;28;20439;-57
2024/01/16 01:11:01;;;;;;;0.90;0.60;;;;;;;-143.84;83.30;45159.50;5088740;28;20490;-57
2024/01/16 01:13:28;;;;;;;0.80;0.50;;;;;;;-143.84;83.07;45159.50;5089215;28;20436;-57
2024/01/16 01:15:57;;;;;;;0.90;0.80;;;;;;;-143.84;83.22;45169.03;5089006;28;20944;-57
2024/01/16 01:18:24;;;;;;;1.10;1.00;;;;;;;-143.84;83.14;45146.19;5088888;28;20444;-57
2024/01/16 01:20:51;;;;;;;0.80;0.50;;;;;;;-143.84;82.38;45169.03;5089088;28;20483;-57
2024/01/16 01:23:18;;;;;;;0.97;0.67;;;;;;;-143.84;82.57;45159.50;5080490;28;21033;-57
2024/01/16 01:25:46;;;;;;;1.37;1.07;;;;;;;-143.84;82.81;45163.31;5069445;28;20444;-57
2024/01/16 01:28:13;;;;;;;4.93;0.80;;;;;;;-143.84;82.59;45172.84;5069136;28;20436;-56
2024/01/16 01:30:40;;;;;;;0.80;0.60;;;;;;;-143.84;82.32;45167.13;5069346;28;20542;-57
2024/01/16 01:33:08;;;;;;;1.67;1.27;;;;;;;-143.84;82.18;45159.50;5069298;28;20437;-56
2024/01/16 01:35:36;;;;;;;0.90;0.60;;;;;;;-143.84;82.37;45144.28;5069301;28;20445;-57
2024/01/16 01:38:03;;;;;;;1.13;0.90;;;;;;;-143.84;82.44;45134.75;5069247;28;20854;-57
2024/01/16 01:40:30;;;;;;;1.47;1.13;;;;;;;-143.84;81.90;45148.09;5069364;28;20505;-56
2024/01/16 01:42:57;;;;;;;1.43;1.33;;;;;;;-143.84;81.96;45159.50;5068778;28;20440;-57
2024/01/16 01:45:24;;;;;;;2.23;0.90;;;;;;;-143.84;81.77;45178.56;5069176;28;20437;-57
2024/01/16 01:47:51;;;;;;;1.80;0.93;;;;;;;-143.84;82.13;45155.69;5069316;28;20873;-57
2024/01/16 01:50:20;;;;;;;0.97;0.80;;;;;;;-143.84;81.98;45186.16;5069065;28;20602;-57
2024/01/16 01:52:47;;;;;;;0.80;0.50;;;;;;;-143.84;82.00;45144.28;5068867;28;20853;-57
2024/01/16 01:55:16;;;;;;;0.80;0.50;;;;;;;-143.84;81.62;45150.00;5069045;28;20447;-57
2024/01/16 01:57:44;;;;;;;0.97;0.57;;;;;;;-143.84;81.41;45130.94;5068929;28;20515;-57
2024/01/16 02:00:12;;;;;;;0.97;0.87;;;;;;;-143.84;81.52;45138.56;5069477;28;20845;-57
2024/01/16 02:02:41;;;;;;;6.97;1.67;;;;;;;-143.84;81.35;45151.91;5068895;28;20487;-57
2024/01/16 02:05:08;;;;;;;0.80;0.50;;;;;;;-143.84;81.58;45155.69;5068750;28;20523;-56
2024/01/16 02:07:37;;;;;;;1.10;0.77;;;;;;;-143.84;81.27;45142.38;5068670;28;20503;-57
2024/01/16 02:10:05;;;;;;;0.80;0.40;;;;;;;-143.84;81.42;45136.66;5083778;28;20475;-57
2024/01/16 02:12:32;;;;;;;0.90;0.70;;;;;;;-143.84;80.88;45146.19;5088818;28;20440;-57
2024/01/16 02:14:59;;;;;;;0.90;0.70;;;;;;;-143.84;80.37;45150.00;5070480;28;20449;-57
2024/01/16 02:17:26;;;;;;;0.80;0.50;;;;;;;-143.84;79.79;45134.75;5068844;28;20589;-57
2024/01/16 02:19:53;;;;;;;0.93;0.83;;;;;;;-143.84;79.31;45146.19;5068285;28;20441;-57
2024/01/16 02:22:22;;;;;;;0.90;0.73;;;;;;;-143.84;79.37;45155.69;5068632;28;20451;-57
2024/01/16 02:24:51;;;;;;;1.20;0.90;;;;;;;-143.84;79.19;45176.66;5068110;28;20955;-56
2024/01/16 02:27:18;;;;;;;0.80;0.50;;;;;;;-143.84;79.90;45130.94;5068627;28;21180;-57
2024/01/16 02:29:46;;;;;;;1.20;1.03;;;;;;;-143.84;80.76;45155.69;5068746;28;20437;-57
2024/01/16 02:32:14;;;;;;;0.80;0.40;;;;;;;-143.84;80.99;45144.28;5068510;28;20468;-56
2024/01/16 02:34:41;;;;;;;1.53;1.43;;;;;;;-143.84;81.52;45148.09;5068588;28;20950;-57
2024/01/16 02:37:09;;;;;;;1.20;0.93;;;;;;;-143.84;82.25;45155.69;5068321;28;20433;-56
2024/01/16 02:39:36;;;;;;;0.80;0.60;;;;;;;-143.84;82.72;45159.50;5068667;28;20956;-57
2024/01/16 02:42:05;;;;;;;2.40;1.33;;;;;;;-143.84;82.62;45150.00;5072184;28;20452;-57
2024/01/16 02:44:32;;;;;;;0.80;0.60;;;;;;;-143.84;82.71;45148.09;5075044;28;20444;-57
2024/01/16 02:47:00;;;;;;;1.80;1.70;;;;;;;-143.84;81.83;45161.41;5075331;28;20452;-57
2024/01/16 02:49:27;;;;;;;0.80;0.40;;;;;;;-143.84;81.69;45150.00;5074851;28;20498;-57
2024/01/16 02:51:54;;;;;;;1.07;0.70;;;;;;;-143.84;81.08;45155.69;5074841;28;20487;-57
2024/01/16 02:54:21;;;;;;;0.80;0.50;;;;;;;-143.84;80.94;45151.91;5075328;28;20918;-57
2024/01/16 02:56:48;;;;;;;0.80;0.60;;;;;;;-143.84;80.87;45167.13;5074788;28;20440;-57
2024/01/16 02:59:17;;;;;;;1.23;0.70;;;;;;;-143.84;81.06;45144.28;5074878;28;20983;-57
2024/01/16 03:01:45;;;;;;;0.80;0.57;;;;;;;-143.84;80.88;45182.38;5074677;28;20445;-57
2024/01/16 03:04:12;;;;;;;1.00;0.80;;;;;;;-143.84;80.68;45146.19;5074780;28;21099;-57
2024/01/16 03:06:39;;;;;;;0.80;0.60;;;;;;;-143.84;80.52;45172.84;5072793;28;20452;-56
2024/01/16 03:09:06;;;;;;;1.83;1.27;;;;;;;-143.84;80.62;45148.09;5074171;28;20855;-56
2024/01/16 03:11:33;;;;;;;1.77;1.23;;;;;;;-143.84;80.76;45170.94;5074742;28;20534;-57
2024/01/16 03:14:00;;;;;;;0.87;0.70;;;;;;;-143.84;80.60;45167.13;5074919;28;20942;-57
2024/01/16 03:16:29;;;;;;;1.40;1.30;;;;;;;-143.84;80.76;45155.69;5074672;28;20447;-57
2024/01/16 03:18:57;;;;;;;1.20;1.10;;;;;;;-143.84;80.67;45182.38;5075316;28;20452;-57
2024/01/16 03:21:24;;;;;;;0.90;0.80;;;;;;;-143.84;80.62;45167.13;5074736;28;20476;-57
2024/01/16 03:23:51;;;;;;;2.40;1.10;;;;;;;-143.84;80.29;45144.28;5074635;28;20459;-57
2024/01/16 03:26:18;;;;;;;0.87;0.67;;;;;;;-143.84;80.25;45146.19;5074896;28;20521;-57
2024/01/16 03:28:46;;;;;;;0.80;0.53;;;;;;;-143.84;79.52;45142.38;5069931;28;21326;-57
2024/01/16 03:31:15;;;;;;;0.80;0.60;;;;;;;-143.84;79.48;45144.28;5079590;28;20490;-57
2024/01/16 03:33:43;;;;;;;1.87;1.17;;;;;;;-143.84;78.75;45153.81;5094700;28;20449;-56
2024/01/16 03:36:12;;;;;;;0.80;0.63;;;;;;;-143.84;79.01;45142.38;5094890;28;20444;-57
2024/01/16 03:38:39;;;;;;;0.90;0.60;;;;;;;-143.84;78.94;45161.41;5094923;28;20446;-57
2024/01/16 03:41:07;;;;;;;0.80;0.60;;;;;;;-143.84;78.71;45161.41;5087807;28;20458;-57
2024/01/16 03:43:35;;;;;;;0.80;0.60;;;;;;;-143.84;78.09;45163.31;5094530;28;20450;-57
2024/01/16 03:46:02;;;;;;;0.90;0.70;;;;;;;-143.84;77.67;45170.94;5094994;28;20470;-57
2024/01/16 03:48:29;;;;;;;1.10;0.83;;;;;;;-143.84;77.77;45163.31;5094945;28;20435;-57
2024/01/16 03:50:58;;;;;;;0.80;0.50;;;;;;;-143.84;77.47;45161.41;5094858;28;20479;-57
2024/01/16 03:53:25;;;;;;;0.90;0.70;;;;;;;-143.84;77.35;45136.66;5091677;28;20439;-57
2024/01/16 03:55:52;;;;;;;1.83;1.33;;;;;;;-143.84;77.09;45148.09;5091464;28;20440;-57
2024/01/16 03:58:20;;;;;;;0.90;0.60;;;;;;;-143.84;76.87;45155.69;5091245;28;20808;-57
2024/01/16 04:00:50;;;;;;;0.80;0.60;;;;;;;-143.84;76.69;45142.38;5078134;28;20453;-57
2024/01/16 04:03:17;;;;;;;1.00;0.80;;;;;;;-143.84;76.61;45153.81;5070983;28;20484;-57
2024/01/16 04:05:44;;;;;;;0.90;0.77;;;;;;;-143.84;76.45;45167.13;5084224;28;20521;-57
2024/01/16 04:08:13;;;;;;;2.73;0.80;;;;;;;-143.84;76.77;45165.22;5091198;28;20436;-57
2024/01/16 04:10:40;;;;;;;0.80;0.50;;;;;;;-143.84;76.53;45153.81;5091082;28;20569;-57
2024/01/16 04:13:10;;;;;;;0.87;0.57;;;;;;;-143.84;76.39;45134.75;5091065;28;20500;-57
2024/01/16 04:15:39;;;;;;;2.60;2.30;;;;;;;-143.84;76.58;45129.03;5071064;28;20445;-57
2024/01/16 04:18:07;;;;;;;0.90;0.73;;;;;;;-143.84;76.46;45151.91;5070909;28;20556;-57
2024/01/16 04:20:34;;;;;;;0.80;0.47;;;;;;;-143.84;76.32;45193.78;5070881;28;21168;-57
2024/01/16 04:23:01;;;;;;;1.50;1.10;;;;;;;-143.84;76.18;45129.03;5070642;28;20428;-57
2024/01/16 04:25:29;;;;;;;0.80;0.60;;;;;;;-143.84;76.25;45151.91;5070501;28;20455;-57
2024/01/16 04:27:57;;;;;;;1.53;1.43;;;;;;;-143.84;76.00;45140.47;5070674;28;20449;-57
2024/01/16 04:30:24;;;;;;;1.17;0.90;;;;;;;-143.84;75.99;45155.69;5070624;28;20495;-57
2024/01/16 04:32:51;;;;;;;0.80;0.50;;;;;;;-143.84;76.21;45169.03;5070585;28;20492;-57
2024/01/16 04:35:18;;;;;;;0.80;0.50;;;;;;;-143.84;76.04;45148.09;5070450;28;20441;-57
2024/01/16 04:37:45;;;;;;;1.00;0.80;;;;;;;-143.84;75.81;45129.03;5070502;28;20433;-57
2024/01/16 04:40:12;;;;;;;1.23;0.87;;;;;;;-143.84;75.50;45188.06;5070639;28;20448;-57
2024/01/16 04:42:42;;;;;;;7.80;2.47;;;;;;;-143.84;75.34;45167.13;5070614;28;20440;-56
2024/01/16 04:45:10;;;;;;;3.63;1.53;;;;;;;-143.84;74.25;45138.56;5070188;28;20453;-57
2024/01/16 04:47:37;;;;;;;0.80;0.60;;;;;;;-143.84;73.99;45148.09;5070424;28;20865;-57
2024/01/16 04:50:05;;;;;;;1.67;1.03;;;;;;;-143.84;73.01;45159.50;5070073;28;20437;-57
2024/01/16 04:52:32;;;;;;;1.60;1.50;;;;;;;-143.84;72.20;45167.13;5074076;28;20480;-57
2024/01/16 04:54:59;;;;;;;1.30;0.97;;;;;;;-143.84;71.96;45130.94;5078187;28;20514;-57
2024/01/16 04:57:26;;;;;;;2.03;0.80;;;;;;;-143.84;71.39;45150.00;5077514;28;20934;-57
2024/01/16 04:59:55;;;;;;;0.90;0.67;;;;;;;-143.84;71.03;45157.59;5069789;28;20819;-57
2024/01/16 05:02:22;;;;;;;0.80;0.50;;;;;;;-143.84;70.25;45136.66;5070000;28;20514;-57
2024/01/16 05:04:51;;;;;;;0.80;0.47;;;;;;;-143.84;69.32;45130.94;5069383;28;20528;-57
2024/01/16 05:07:20;;;;;;;0.80;0.40;;;;;;;-143.84;68.84;45138.56;5070099;28;20527;-57
2024/01/16 05:09:47;;;;;;;0.80;0.50;;;;;;;-143.84;68.89;45148.09;5069813;28;20452;-57
2024/01/16 05:12:14;;;;;;;1.10;0.87;;;;;;;-143.84;68.66;45155.69;5069765;28;20558;-57
2024/01/16 05:14:42;;;;;;;1.00;0.60;;;;;;;-143.84;68.57;45148.09;5069758;28;20946;-57
2024/01/16 05:17:10;;;;;;;2.90;1.30;;;;;;;-143.84;68.01;45153.81;5069802;28;20441;-57
2024/01/16 05:19:38;;;;;;;0.80;0.50;;;;;;;-143.84;67.52;45134.75;5069593;28;20456;-57
2024/01/16 05:22:05;;;;;;;0.80;0.50;;;;;;;-143.84;66.83;45132.84;5069538;28;20899;-57
2024/01/16 05:24:32;;;;;;;0.90;0.80;;;;;;;-143.84;67.08;45151.91;5069320;28;20445;-56
2024/01/16 05:26:59;;;;;;;0.90;0.70;;;;;;;-143.84;66.58;45150.00;5056309;28;20457;-58
2024/01/16 05:29:26;;;;;;;0.80;0.50;;;;;;;-143.84;66.81;45169.03;5049222;28;20430;-59
2024/01/16 05:31:53;;;;;;;1.73;1.00;;;;;;;-143.84;66.69;45138.56;5049012;28;20979;-59
2024/01/16 05:34:22;;;;;;;0.80;0.50;;;;;;;-143.84;66.13;45142.38;5049232;28;20445;-59
2024/01/16 05:36:49;;;;;;;3.57;2.30;;;;;;;-143.84;66.36;45161.41;5049134;28;20883;-59
2024/01/16 05:39:17;;;;;;;1.30;1.10;;;;;;;-143.84;66.35;45151.91;5049064;28;20464;-59
2024/01/16 05:41:44;;;;;;;0.80;0.50;;;;;;;-143.84;66.65;45142.38;5052489;28;20468;-59
2024/01/16 05:44:11;;;;;;;3.20;1.30;;;;;;;-143.84;66.82;45157.59;5069140;28;20447;-59
2024/01/16 05:46:38;;;;;;;0.80;0.60;;;;;;;-143.84;67.28;45144.28;5079764;28;20448;-60
2024/01/16 05:49:05;;;;;;;0.80;0.40;;;;;;;-143.84;66.83;45129.03;5088350;28;20448;-60
2024/01/16 05:51:34;;;;;;;0.80;0.60;;;;;;;-143.84;66.50;45170.94;5088608;28;20491;-59
2024/01/16 05:54:01;;;;;;;1.43;1.33;;;;;;;-143.84;66.21;45140.47;5088510;28;20502;-60
2024/01/16 05:56:28;;;;;;;1.10;1.00;;;;;;;-143.84;66.47;45144.28;5088503;28;20432;-60
2024/01/16 05:58:55;;;;;;;0.87;0.53;;;;;;;-143.84;66.56;45146.19;5088587;28;20536;-60
2024/01/16 06:01:22;;;;;;;1.50;0.83;;;;;;;-143.84;66.30;45148.09;5089128;28;21001;-60
2024/01/16 06:03:49;;;;;;;0.80;0.50;;;;;;;-143.84;66.73;45140.47;5088892;28;20440;-60
2024/01/16 06:06:16;;;;;;;0.80;0.50;;;;;;;-143.84;66.67;45134.75;5074136;28;20476;-60
2024/01/16 06:08:45;;;;;;;0.80;0.40;;;;;;;-143.84;66.84;45153.81;5068730;28;20498;-60
2024/01/16 06:11:12;;;;;;;0.80;0.50;;;;;;;-143.84;66.70;45159.50;5068477;28;20550;-60
2024/01/16 06:13:39;;;;;;;5.90;1.80;;;;;;;-143.84;66.70;45148.09;5068540;28;20468;-60
2024/01/16 06:16:08;;;;;;;1.10;0.73;;;;;;;-143.84;67.14;45144.28;5068044;28;20873;-60
2024/01/16 06:18:35;;;;;;;0.80;0.50;;;;;;;-143.84;67.11;45151.91;5068294;28;20444;-60
2024/01/16 06:21:02;;;;;;;0.80;0.40;;;;;;;-143.84;67.84;45146.19;5068298;28;20531;-60
2024/01/16 06:23:29;;;;;;;1.37;1.27;;;;;;;-143.84;67.92;45153.81;5068362;28;20950;-60
2024/01/16 06:25:58;;;;;;;0.80;0.60;;;;;;;-143.84;67.69;45132.84;5068395;28;20453;-60
2024/01/16 06:28:25;;;;;;;1.57;0.90;;;;;;;-143.84;68.00;45140.47;5068613;28;20506;-60
2024/01/16 06:30:52;;;;;;;0.90;0.70;;;;;;;-143.84;68.26;45155.69;5068349;28;20494;-60
2024/01/16 06:33:19;;;;;;;1.00;0.70;;;;;;;-143.84;69.17;45167.13;5068473;28;20872;-60
2024/01/16 06:35:47;;;;;;;1.10;0.70;;;;;;;-143.84;69.63;45150.00;5068504;28;21131;-60
2024/01/16 06:38:14;;;;;;;0.80;0.60;;;;;;;-143.84;70.14;45146.19;5068285;28;20444;-60
2024/01/16 06:40:42;;;;;;;0.90;0.73;;;;;;;-143.84;70.56;45153.81;5068464;28;20792;-60
2024/01/16 06:43:11;;;;;;;1.87;1.77;;;;;;;-143.84;70.14;45184.25;5068109;28;20442;-60
2024/01/16 06:45:38;;;;;;;1.13;1.03;;;;;;;-143.84;70.23;45146.19;5067938;28;20455;-60
2024/01/16 06:48:05;;;;;;;1.00;0.50;;;;;;;-143.84;70.33;45148.09;5068311;28;20854;-60
2024/01/16 06:50:32;;;;;;;0.90;0.60;;;;;;;-143.84;69.92;45142.38;5068153;28;20441;-60
2024/01/16 06:53:00;;;;;;;2.60;1.10;;;;;;;-143.84;69.94;45161.41;5068102;28;20477;-60
2024/01/16 06:55:27;;;;;;;2.90;1.13;;;;;;;-143.84;69.86;45165.22;5068470;28;20437;-60
2024/01/16 06:57:54;;;;;;;0.80;0.40;;;;;;;-143.84;70.25;45157.59;5068195;28;20440;-60
2024/01/16 07:00:25;;;;;;;0.87;0.63;;;;;;;-143.84;70.26;45136.66;5068506;28;20914;-60
2024/01/16 07:02:54;;;;;;;0.80;0.50;;;;;;;-143.84;69.74;45170.94;5067879;28;20461;-60
2024/01/16 07:05:21;;;;;;;1.00;0.90;;;;;;;-143.84;69.54;45172.84;5067933;28;20963;-60
2024/01/16 07:07:48;;;;;;;1.10;0.87;;;;;;;-143.84;69.94;45178.56;5068137;28;21230;-60
2024/01/16 07:10:19;;;;;;;1.80;1.60;;;;;;;-143.84;70.04;45142.38;5067949;28;20498;-60
2024/01/16 07:12:47;;;;;;;0.90;0.70;;;;;;;-143.84;70.39;45151.91;5068286;28;20498;-60
2024/01/16 07:15:14;;;;;;;2.70;1.53;;;;;;;-143.84;70.98;45167.13;5067854;28;20433;-60
2024/01/16 07:17:43;;;;;;;1.20;1.10;;;;;;;-143.84;70.77;45148.09;5068138;28;20867;-60
2024/01/16 07:20:11;;;;;;;0.80;0.50;;;;;;;-143.84;71.55;45180.47;5067626;28;20488;-60
2024/01/16 07:22:39;;;;;;;0.90;0.70;;;;;;;-143.84;71.36;45125.22;5068210;28;20946;-60
2024/01/16 07:25:07;;;;;;;0.90;0.80;;;;;;;-143.84;71.50;45172.84;5067924;28;20526;-60
2024/01/16 07:27:34;;;;;;;0.80;0.40;;;;;;;-143.84;70.57;45150.00;5068936;28;20992;-60
2024/01/16 07:30:01;;;;;;;1.10;0.57;;;;;;;-143.84;70.25;45140.47;5071419;28;20448;-60
2024/01/16 07:32:28;;;;;;;1.10;0.93;;;;;;;-143.84;71.05;45155.69;5071232;28;20476;-60
2024/01/16 07:34:57;;;;;;;1.27;1.13;;;;;;;-143.84;70.50;45176.66;5071480;28;20444;-60
2024/01/16 07:37:24;;;;;;;0.93;0.70;;;;;;;-143.84;70.80;45186.16;5071396;28;20456;-60
2024/01/16 07:39:51;;;;;;;1.43;1.33;;;;;;;-143.84;70.92;45170.94;5071542;28;20466;-60
2024/01/16 07:42:18;;;;;;;1.07;0.83;;;;;;;-143.84;70.71;45151.91;5071502;28;20451;-60
2024/01/16 07:44:45;;;;;;;0.80;0.40;;;;;;;-143.84;70.98;45159.50;5071182;28;20448;-60
2024/01/16 07:47:13;;;;;;;2.70;2.10;;;;;;;-143.84;71.24;45163.31;5071181;28;20448;-60
2024/01/16 07:49:40;;;;;;;0.90;0.80;;;;;;;-143.84;71.17;45159.50;5071491;28;20445;-60
2024/01/16 07:52:08;;;;;;;0.90;0.73;;;;;;;-143.84;71.27;45132.84;5071112;28;20480;-60
2024/01/16 07:54:36;;;;;;;0.90;0.80;;;;;;;-143.84;72.11;45134.75;5071188;28;20464;-60
2024/01/16 07:57:03;;;;;;;1.37;0.80;;;;;;;-143.84;72.22;45195.69;5071066;28;20433;-60
2024/01/16 07:59:30;;;;;;;1.20;0.97;;;;;;;-143.84;72.36;45170.94;5071237;28;20792;-60
2024/01/16 08:01:57;;;;;;;4.37;0.93;;;;;;;-143.84;72.52;45155.69;5070939;28;20451;-60
2024/01/16 08:04:24;;;;;;;0.80;0.57;;;;;;;-143.84;71.91;45172.84;5071419;28;20949;-60
2024/01/16 08:06:51;;;;;;;2.73;1.00;;;;;;;-143.84;71.58;45180.47;5070872;28;20440;-60
2024/01/16 08:09:20;;;;;;;2.03;1.63;;;;;;;-143.84;72.18;45148.09;5070819;28;20452;-59
2024/01/16 08:11:47;;;;;;;1.73;1.63;;;;;;;-143.84;72.50;45178.56;5070662;28;20487;-60
2024/01/16 08:14:14;;;;;;;4.70;2.10;;;;;;;-143.84;73.24;45163.31;5070597;28;20471;-60
2024/01/16 08:16:41;;;;;;;0.90;0.60;;;;;;;-143.84;73.56;45197.59;5070824;28;20444;-60
2024/01/16 08:19:08;;;;;;;3.57;1.77;;;;;;;-143.84;74.59;45151.91;5070925;28;20929;-60
2024/01/16 08:21:36;;;;;;;1.50;1.40;;;;;;;-143.84;75.68;45159.50;5086164;28;20898;-59
2024/01/16 08:24:03;;;;;;;1.80;1.10;;;;;;;-143.84;75.52;45180.47;5085704;28;20524;-59
2024/01/16 08:26:32;;;;;;;1.57;1.40;;;;;;;-143.84;76.21;45180.47;5069899;28;20534;-59
2024/01/16 08:28:59;;;;;;;2.30;2.10;;;;;;;-143.84;75.84;45184.25;5070482;28;20440;-59
2024/01/16 08:31:27;;;;;;;3.43;3.13;;;;;;;-143.84;75.94;45167.13;5070462;28;20547;-60
2024/01/16 08:33:55;;;;;;;2.77;1.63;;;;;;;-143.84;76.26;45174.75;5070623;28;20481;-60
2024/01/16 08:36:23;;;;;;;7.50;3.40;;;;;;;-143.84;76.37;45176.66;5070604;28;20442;-60
2024/01/16 08:38:50;;;;;;;1.63;1.50;;;;;;;-143.84;77.12;45193.78;5069899;28;20969;-60
2024/01/16 08:41:17;;;;;;;2.57;2.37;;;;;;;-143.84;76.68;45176.66;5070210;28;20576;-60
2024/01/16 08:43:46;;;;;;;0.90;0.60;;;;;;;-143.84;76.49;45186.16;5070290;28;20513;-60
2024/01/16 08:46:13;;;;;;;1.67;1.00;;;;;;;-143.84;75.95;45167.13;5070510;28;20453;-60
2024/01/16 08:48:41;;;;;;;3.57;2.47;;;;;;;-143.84;75.56;45174.75;5070572;28;20446;-60
2024/01/16 08:51:09;;;;;;;1.00;0.90;;;;;;;-143.84;75.86;45189.97;5070459;28;20446;-60
2024/01/16 08:53:36;;;;;;;1.20;1.10;;;;;;;-143.84;75.81;45150.00;5070182;28;20540;-60
2024/01/16 08:56:06;;;;;;;1.70;1.60;;;;;;;-143.84;76.29;45189.97;5070051;28;21111;-60
2024/01/16 08:58:35;;;;;;;1.53;1.10;;;;;;;-143.84;76.41;45197.59;5069952;28;21125;-60
2024/01/16 09:01:04;;;;;;;1.27;1.17;;;;;;;-143.84;76.19;45189.97;5070041;28;20526;-60
2024/01/16 09:03:33;;;;;;;10.03;1.77;;;;;;;-143.84;76.63;45163.31;5069461;28;20957;-60
2024/01/16 09:06:00;;;;;;;2.07;1.33;;;;;;;-143.84;76.61;45170.94;5069836;28;20493;-60
2024/01/16 09:08:28;;;;;;;1.20;1.10;;;;;;;-143.84;76.86;45184.25;5069804;28;20493;-60
2024/01/16 09:10:55;;;;;;;0.80;0.50;;;;;;;-143.84;76.18;45197.59;5070392;28;20465;-60
2024/01/16 09:13:23;;;;;;;2.60;2.40;;;;;;;-143.84;76.06;45178.56;5069646;28;20535;-60
2024/01/16 09:15:50;;;;;;;1.30;1.20;;;;;;;-143.84;75.70;45153.81;5069824;28;20448;-60
2024/01/16 09:18:19;;;;;;;3.00;1.30;;;;;;;-143.84;75.58;45170.94;5069535;28;20443;-60
2024/01/16 09:20:46;;;;;;;0.93;0.73;;;;;;;-143.84;75.26;45165.22;5078156;28;20486;-60
2024/01/16 09:23:14;;;;;;;1.60;1.50;;;;;;;-143.84;74.99;45159.50;5089854;28;20821;-60
2024/01/16 09:25:41;;;;;;;1.53;1.17;;;;;;;-143.84;74.54;45186.16;5072160;28;20446;-60
2024/01/16 09:28:08;;;;;;;0.87;0.73;;;;;;;-143.84;75.11;45159.50;5069643;28;20519;-60
2024/01/16 09:30:35;;;;;;;0.80;0.60;;;;;;;-143.84;74.25;45176.66;5069591;28;21170;-60
2024/01/16 09:33:04;;;;;;;1.80;1.70;;;;;;;-143.84;73.91;45188.06;5069387;28;20486;-60
2024/01/16 09:35:32;;;;;;;0.87;0.63;;;;;;;-143.84;73.50;45188.06;5069417;28;20804;-60
2024/01/16 09:38:00;;;;;;;5.33;1.70;;;;;;;-143.84;73.25;45169.03;5069349;28;20443;-60
2024/01/16 09:40:27;;;;;;;1.10;0.87;;;;;;;-143.84;71.87;45170.94;5069521;28;20449;-60
2024/01/16 09:42:54;;;;;;;7.03;1.97;;;;;;;-143.84;70.86;45216.63;5069639;28;20526;-60
2024/01/16 09:45:22;;;;;;;1.50;0.90;;;;;;;-143.84;70.89;45174.75;5069510;28;21182;-59
2024/01/16 09:47:52;;;;;;;0.80;0.50;;;;;;;-143.84;70.79;45169.03;5069592;28;20523;-59
2024/01/16 09:50:20;;;;;;;1.37;1.10;;;;;;;-143.84;69.13;45153.81;5068525;28;20462;-60
2024/01/16 09:52:48;;;;;;;1.50;1.40;;;;;;;-143.84;68.53;45144.28;5068230;28;20522;-60
2024/01/16 09:55:16;;;;;;;1.13;1.03;;;;;;;-143.84;67.41;45159.50;5069068;28;20449;-60
2024/01/16 09:57:47;;;;;;;1.40;0.83;;;;;;;-143.84;66.30;45153.81;5068981;28;20837;-60
2024/01/16 10:00:15;;;;;;;0.80;0.60;;;;;;;-143.84;66.27;45159.50;5068924;28;20440;-59
2024/01/16 10:02:43;;;;;;;2.40;1.13;;;;;;;-143.84;64.27;45157.59;5083209;28;20477;-59
2024/01/16 10:05:11;;;;;;;1.00;0.90;;;;;;;-143.84;64.68;45167.13;5089321;28;20431;-60
2024/01/16 10:07:40;;;;;;;1.50;1.20;;;;;;;-143.84;64.91;45167.13;5088958;28;20447;-59
2024/01/16 10:10:10;;;;;;;1.10;1.00;;;;;;;-143.84;63.11;45195.69;5089125;28;20466;-59
2024/01/16 10:12:39;;;;;;;1.00;0.90;;;;;;;-143.84;62.25;45148.09;5088840;28;20983;-59
2024/01/16 10:15:08;;;;;;;0.90;0.70;;;;;;;-143.84;61.06;45176.66;5089032;28;20558;-59
2024/01/16 10:17:39;;;;;;;0.90;0.70;;;;;;;-143.84;60.50;45170.94;5089192;28;20485;-60
2024/01/16 10:20:07;;;;;;;0.97;0.67;;;;;;;-143.84;58.11;45148.09;5088931;28;20490;-60
2024/01/16 10:22:35;;;;;;;0.90;0.80;;;;;;;-143.84;57.54;45144.28;5088583;28;20447;-59
2024/01/16 10:25:16;;;;;;;0.83;0.70;;;;;;;-143.84;55.40;45144.28;5076106;28;21041;-59
2024/01/16 10:27:44;;;;;;;0.90;0.73;;;;;;;-143.84;53.97;45163.31;5067542;28;20563;-59
2024/01/16 10:30:11;;;;;;;0.90;0.60;;;;;;;-143.84;52.89;45144.28;5077675;28;20451;-60
2024/01/16 10:32:40;;;;;;;0.90;0.70;;;;;;;-143.84;51.41;45167.13;5087817;28;20498;-60
2024/01/16 10:35:10;;;;;;;0.80;0.40;;;;;;;-143.84;49.71;45157.59;5088183;28;20448;-60
2024/01/16 10:37:44;;;;;;;1.13;1.03;;;;;;;-143.84;49.08;45132.84;5082179;28;20535;-60
2024/01/16 10:40:16;;;;;;;1.43;1.33;;;;;;;-143.84;47.74;45144.28;5067718;28;21043;-60
2024/01/16 10:42:44;;;;;;;0.83;0.60;;;;;;;-143.84;44.02;45155.69;5068490;28;20482;-60
2024/01/16 10:45:19;;;;;;;0.80;0.60;;;;;;;-143.84;43.50;45134.75;5068432;28;20451;-60
2024/01/16 10:47:47;;;;;;;1.00;0.67;;;;;;;-143.84;42.63;45129.03;5068208;28;20834;-60
2024/01/16 10:50:15;;;;;;;0.80;0.50;;;;;;;-143.84;43.19;45130.94;5068283;28;20503;-60
2024/01/16 10:52:48;;;;;;;1.20;0.90;;;;;;;-143.84;41.75;45123.34;5068003;28;20472;-60
2024/01/16 10:55:22;;;;;;;0.80;0.40;;;;;;;-143.84;42.17;45119.53;5067845;28;20961;-60
2024/01/16 10:57:50;;;;;;;0.90;0.70;;;;;;;-143.84;41.03;45100.47;5068301;28;21350;-60
2024/01/16 11:00:21;;;;;;;11.63;0.80;;;;;;;-143.84;40.92;45127.13;5068036;28;20464;-60
2024/01/16 11:03:01;;;;;;;0.80;0.40;;;;;;;-143.84;40.63;45098.56;5069420;28;20526;-60
2024/01/16 11:05:31;;;;;;;1.63;1.23;;;;;;;-143.84;40.28;45117.63;5071885;28;20436;-60
2024/01/16 11:08:01;;;;;;;2.30;0.60;;;;;;;-143.84;39.72;45121.44;5072443;28;20506;-60
2024/01/16 11:10:29;;;;;;;0.80;0.60;;;;;;;-143.84;38.73;45125.22;5072325;28;20528;-59
2024/01/16 11:13:00;;;;;;;0.80;0.50;;;;;;;-143.84;38.37;45106.19;5071727;28;20488;-60
2024/01/16 11:15:29;;;;;;;0.80;0.50;;;;;;;-143.84;38.52;45125.22;5071768;28;20957;-60
2024/01/16 11:17:57;;;;;;;0.80;0.50;;;;;;;-143.84;38.42;45140.47;5071768;28;20953;-60
2024/01/16 11:20:25;;;;;;;0.80;0.43;;;;;;;-143.84;38.00;45132.84;5076872;28;20843;-60